CheckWX is a tool to help pilots better visualize weather data.  It is not intended as a substitute for an official pre-flight weather briefing.

13:19:59 UTC

KHII METAR
Lake Havasu City Airport
Lake Havasu City, Arizona, USA
Current

50 mins ago

KHII 191230Z AUTO 08003KT 10SM SCT050 24/M06 A2974 RMK AO2
Observed
Sep-19 @ 12:30 UTC
Wind
  • 080° at 3 KTS
Visibility
10 SM
Flight Rules
VFR
Cloud Levels
  • Scattered at 5,000' AGL
Temperature
24°C / 75°F
Dewpoint
-6°C / 21°F
Humidity
13%
Altimeter
29.74" Hg
Pressure
1007.12 hPa
Previous

1 hour ago

KHII 191210Z AUTO 19003KT 10SM SCT060 24/M07 A2974 RMK AO2
Observed
Sep-19 @ 12:10 UTC
Wind
  • 190° at 3 KTS
Visibility
10 SM
Flight Rules
VFR
Cloud Levels
  • Scattered at 6,000' AGL
Temperature
24°C / 75°F
Dewpoint
-7°C / 19°F
Humidity
12%
Altimeter
29.74" Hg
Pressure
1007.12 hPa
Previous

1 hour ago

KHII 191150Z AUTO 00000KT 10SM SCT060 26/M07 A2973 RMK AO2
Observed
Sep-19 @ 11:50 UTC
Visibility
10 SM
Flight Rules
VFR
Cloud Levels
  • Scattered at 6,000' AGL
Temperature
26°C / 79°F
Dewpoint
-7°C / 19°F
Humidity
11%
Altimeter
29.73" Hg
Pressure
1006.82 hPa